createdAt,value
2018-12-23T00:00:13.129Z,22.80
2018-12-23T00:01:13.142Z,23.40
2018-12-23T00:02:13.095Z,26.20
2018-12-23T00:03:13.087Z,24.50
2018-12-23T00:04:13.072Z,22.40
2018-12-23T00:05:13.062Z,26.80
2018-12-23T00:06:13.079Z,21.70
2018-12-23T00:07:13.053Z,22.10
2018-12-23T00:08:13.027Z,25.50
2018-12-23T00:09:13.064Z,24.80
2018-12-23T00:10:13.003Z,28.30
2018-12-23T00:11:12.998Z,25.70
2018-12-23T00:12:13.011Z,30.50
2018-12-23T00:13:12.970Z,28.30
2018-12-23T00:14:12.961Z,25.00
2018-12-23T00:15:12.950Z,21.40
2018-12-23T00:16:12.946Z,24.40
2018-12-23T00:17:12.962Z,25.50
2018-12-23T00:18:12.964Z,25.70
2018-12-23T00:19:12.923Z,22.30
2018-12-23T00:20:12.905Z,24.00
2018-12-23T00:21:12.883Z,24.30
2018-12-23T00:22:12.874Z,24.50
2018-12-23T00:23:12.863Z,28.00
2018-12-23T00:24:12.885Z,28.60
2018-12-23T00:25:12.849Z,28.90
2018-12-23T00:26:12.833Z,22.80
2018-12-23T00:27:12.814Z,25.80
2018-12-23T00:28:12.807Z,24.80
2018-12-23T00:29:12.826Z,29.80
2018-12-23T00:30:12.780Z,27.30
2018-12-23T00:31:12.782Z,22.10
2018-12-23T00:32:12.760Z,25.00
2018-12-23T00:33:12.768Z,25.90
2018-12-23T00:34:12.767Z,22.30
2018-12-23T00:35:20.070Z,22.60
2018-12-23T00:36:13.717Z,22.60
2018-12-23T00:37:12.708Z,22.00
2018-12-23T00:38:12.693Z,23.40
2018-12-23T00:39:12.700Z,24.20
2018-12-23T00:40:12.676Z,23.90
2018-12-23T00:41:12.660Z,21.50
2018-12-23T00:42:12.644Z,23.80
2018-12-23T00:43:12.640Z,24.50
2018-12-23T00:44:12.666Z,23.90
2018-12-23T00:45:12.614Z,25.20
2018-12-23T00:46:12.632Z,25.50
2018-12-23T00:47:12.592Z,20.20
2018-12-23T00:48:12.698Z,27.30
2018-12-23T00:49:12.612Z,25.10
2018-12-23T00:50:12.558Z,26.60
2018-12-23T00:51:12.549Z,29.90
2018-12-23T00:52:12.537Z,22.90
2018-12-23T00:53:12.545Z,25.00
2018-12-23T00:54:12.512Z,26.40
2018-12-23T00:55:12.504Z,24.90
2018-12-23T00:56:12.489Z,27.60
2018-12-23T00:57:12.506Z,26.10
2018-12-23T00:58:12.491Z,25.70
2018-12-23T00:59:12.462Z,24.00
2018-12-23T01:00:12.446Z,25.00
2018-12-23T01:01:12.441Z,27.40
2018-12-23T01:02:12.453Z,24.30
2018-12-23T01:03:12.415Z,28.50
2018-12-23T01:04:12.424Z,27.10
2018-12-23T01:05:12.425Z,25.20
2018-12-23T01:06:12.384Z,33.40
2018-12-23T01:07:12.369Z,33.20
2018-12-23T01:08:12.363Z,28.50
2018-12-23T01:09:12.349Z,28.60
2018-12-23T01:10:12.364Z,30.10
2018-12-23T01:11:12.331Z,25.70
2018-12-23T01:12:12.322Z,25.80
2018-12-23T01:13:12.302Z,28.30
2018-12-23T01:14:12.290Z,29.80
2018-12-23T01:15:12.311Z,21.40
2018-12-23T01:16:12.377Z,24.60
2018-12-23T01:17:12.298Z,27.10
2018-12-23T01:18:12.255Z,28.60
2018-12-23T01:19:12.235Z,23.30
2018-12-23T01:20:12.253Z,24.70
2018-12-23T01:21:12.210Z,24.40
2018-12-23T01:22:12.205Z,26.70
2018-12-23T01:23:12.217Z,29.20
2018-12-23T01:24:12.180Z,25.50
2018-12-23T01:25:12.169Z,31.40
2018-12-23T01:26:12.156Z,22.20
2018-12-23T01:27:12.187Z,31.20
2018-12-23T01:28:12.133Z,24.70
2018-12-23T01:29:12.128Z,30.00
2018-12-23T01:30:12.112Z,27.30
2018-12-23T01:31:12.101Z,28.40
2018-12-23T01:32:12.123Z,21.70
2018-12-23T01:33:12.077Z,24.50
2018-12-23T01:34:12.073Z,29.20
2018-12-23T01:35:12.090Z,27.50
2018-12-23T01:36:12.044Z,29.80
2018-12-23T01:37:12.038Z,29.40
2018-12-23T01:38:12.024Z,28.40
2018-12-23T01:39:12.012Z,27.20
2018-12-23T01:40:12.026Z,29.30
2018-12-23T01:41:12.013Z,28.30
2018-12-23T01:42:12.006Z,27.00
2018-12-23T01:43:11.971Z,29.40
2018-12-23T01:44:11.960Z,25.90
2018-12-23T01:45:11.944Z,35.00
2018-12-23T01:46:11.931Z,25.50
2018-12-23T01:47:11.963Z,24.80
2018-12-23T01:48:11.908Z,27.20
2018-12-23T01:49:11.896Z,29.80
2018-12-23T01:50:11.888Z,29.70
2018-12-23T01:51:11.887Z,27.50
2018-12-23T01:52:11.887Z,23.30
2018-12-23T01:53:11.867Z,27.70
2018-12-23T01:54:11.860Z,29.70
2018-12-23T01:55:11.839Z,23.60
2018-12-23T01:56:11.849Z,27.30
2018-12-23T01:57:11.825Z,29.00
2018-12-23T01:58:11.842Z,26.90
2018-12-23T01:59:11.785Z,26.40
2018-12-23T02:00:11.774Z,23.30
2018-12-23T02:01:11.765Z,25.60
2018-12-23T02:02:11.753Z,26.30
2018-12-23T02:03:11.769Z,29.80
2018-12-23T02:04:11.750Z,27.30
2018-12-23T02:05:11.721Z,26.30
2018-12-23T02:06:13.387Z,28.00
2018-12-23T02:07:11.697Z,27.60
2018-12-23T02:08:11.687Z,24.70
2018-12-23T02:09:11.685Z,25.80
2018-12-23T02:10:11.667Z,25.70
2018-12-23T02:11:11.694Z,28.50
2018-12-23T02:12:11.655Z,28.40
2018-12-23T02:13:11.630Z,27.40
2018-12-23T02:14:11.644Z,28.90
2018-12-23T02:15:11.613Z,27.40
2018-12-23T02:16:11.604Z,31.40
2018-12-23T02:17:11.588Z,26.70
2018-12-23T02:18:11.575Z,26.20
2018-12-23T02:19:11.599Z,25.90
2018-12-23T02:20:11.572Z,26.80
2018-12-23T02:21:11.565Z,27.70
2018-12-23T02:22:11.571Z,27.00
2018-12-23T02:23:11.522Z,25.40
2018-12-23T02:24:11.536Z,28.70
2018-12-23T02:25:11.525Z,29.90
2018-12-23T02:26:11.486Z,28.20
2018-12-23T02:27:11.480Z,27.00
2018-12-23T02:28:11.469Z,24.00
2018-12-23T02:29:11.454Z,29.50
2018-12-23T02:30:11.479Z,25.50
2018-12-23T02:31:11.434Z,22.10
2018-12-23T02:32:11.431Z,25.30
2018-12-23T02:33:11.435Z,26.50
2018-12-23T02:34:11.402Z,22.00
2018-12-23T02:35:11.427Z,29.40
2018-12-23T02:36:11.392Z,21.90
2018-12-23T02:37:11.404Z,26.80
2018-12-23T02:38:11.366Z,28.40
2018-12-23T02:39:11.347Z,20.00
2018-12-23T02:40:11.338Z,26.80
2018-12-23T02:41:11.339Z,24.60
2018-12-23T02:42:11.351Z,24.90
2018-12-23T02:43:11.304Z,27.10
2018-12-23T02:44:11.293Z,23.90
2018-12-23T02:45:11.287Z,26.10
2018-12-23T02:46:11.329Z,23.40
2018-12-23T02:47:11.262Z,28.90
2018-12-23T02:48:11.249Z,26.60
2018-12-23T02:49:11.237Z,27.10
2018-12-23T02:50:11.236Z,24.90
2018-12-23T02:51:11.247Z,24.30
2018-12-23T02:52:11.210Z,21.90
2018-12-23T02:53:11.201Z,30.80
2018-12-23T02:54:11.222Z,28.70
2018-12-23T02:55:11.173Z,22.10
2018-12-23T02:56:11.241Z,23.10
2018-12-23T02:57:11.157Z,27.20
2018-12-23T02:58:11.141Z,22.90
2018-12-23T02:59:11.166Z,31.80
2018-12-23T03:00:11.126Z,27.00
2018-12-23T03:01:11.122Z,26.20
2018-12-23T03:02:11.096Z,21.80
2018-12-23T03:03:11.085Z,24.90
2018-12-23T03:04:11.108Z,22.80
2018-12-23T03:05:11.066Z,25.30
2018-12-23T03:06:11.064Z,28.50
2018-12-23T03:07:11.040Z,27.00
2018-12-23T03:08:11.029Z,26.50
2018-12-23T03:09:11.045Z,23.60
2018-12-23T03:10:11.035Z,32.20
2018-12-23T03:11:11.005Z,29.30
2018-12-23T03:12:10.990Z,28.20
2018-12-23T03:13:10.991Z,29.00
2018-12-23T03:14:10.990Z,24.60
2018-12-23T03:15:10.984Z,28.00
2018-12-23T03:16:10.973Z,20.50
2018-12-23T03:17:10.935Z,24.80
2018-12-23T03:18:10.931Z,28.50
2018-12-23T03:19:10.939Z,27.60
2018-12-23T03:20:10.926Z,24.80
2018-12-23T03:21:10.888Z,27.60
2018-12-23T03:22:10.874Z,30.00
2018-12-23T03:23:10.863Z,27.20
2018-12-23T03:24:10.879Z,25.70
2018-12-23T03:25:10.854Z,25.50
2018-12-23T03:26:10.835Z,26.20
2018-12-23T03:27:10.825Z,23.90
2018-12-23T03:28:10.841Z,23.10
2018-12-23T03:29:10.824Z,24.50
2018-12-23T03:30:10.795Z,26.70
2018-12-23T03:31:10.783Z,28.20
2018-12-23T03:32:10.770Z,29.50
2018-12-23T03:33:10.811Z,25.80
2018-12-23T03:34:10.753Z,29.20
2018-12-23T03:35:10.773Z,28.70
2018-12-23T03:36:15.296Z,28.90
2018-12-23T03:37:10.714Z,26.90
2018-12-23T03:38:10.740Z,28.10
2018-12-23T03:39:10.687Z,26.70
2018-12-23T03:40:10.686Z,23.60
2018-12-23T03:41:10.675Z,24.80
2018-12-23T03:42:10.674Z,24.30
2018-12-23T03:43:10.682Z,24.20
2018-12-23T03:44:10.669Z,23.60
2018-12-23T03:45:10.623Z,27.30
2018-12-23T03:46:10.638Z,25.90
2018-12-23T03:47:10.603Z,28.20
2018-12-23T03:48:10.589Z,22.60
2018-12-23T03:49:10.626Z,29.30
2018-12-23T03:50:10.573Z,28.10
2018-12-23T03:51:10.559Z,26.50
2018-12-23T03:52:10.554Z,22.50
2018-12-23T03:53:10.537Z,24.50
2018-12-23T03:54:10.569Z,21.50
2018-12-23T03:55:10.532Z,25.20
2018-12-23T03:56:10.510Z,25.20
2018-12-23T03:57:10.520Z,24.20
2018-12-23T03:58:10.480Z,22.20
2018-12-23T03:59:10.471Z,28.00
2018-12-23T04:00:10.461Z,27.80
2018-12-23T04:01:10.461Z,30.60
2018-12-23T04:02:10.462Z,24.10
2018-12-23T04:03:10.444Z,26.80
2018-12-23T04:04:10.421Z,24.40
2018-12-23T04:05:10.442Z,23.40
2018-12-23T04:06:10.393Z,28.20
2018-12-23T04:07:10.390Z,23.60
2018-12-23T04:08:10.403Z,27.90
2018-12-23T04:09:10.361Z,26.80
2018-12-23T04:10:10.349Z,21.30
2018-12-23T04:11:10.340Z,22.30
2018-12-23T04:12:10.329Z,26.70
2018-12-23T04:13:10.351Z,28.20
2018-12-23T04:14:10.314Z,23.10
2018-12-23T04:15:10.337Z,24.30
2018-12-23T04:16:10.294Z,23.70
2018-12-23T04:17:10.304Z,27.30
2018-12-23T04:18:10.266Z,25.00
2018-12-23T04:19:10.256Z,22.30
2018-12-23T04:20:10.274Z,25.00
2018-12-23T04:21:10.246Z,23.60
2018-12-23T04:22:10.266Z,23.70
2018-12-23T04:23:10.213Z,24.10
2018-12-23T04:24:10.201Z,22.80
2018-12-23T04:25:10.202Z,24.50
2018-12-23T04:26:10.179Z,22.10
2018-12-23T04:27:10.196Z,22.30
2018-12-23T04:28:10.159Z,24.60
2018-12-23T04:29:10.148Z,24.00
2018-12-23T04:30:10.141Z,24.00
2018-12-23T04:31:10.123Z,23.10
2018-12-23T04:32:10.139Z,23.70
2018-12-23T04:33:10.112Z,28.80
2018-12-23T04:34:10.098Z,27.50
2018-12-23T04:35:10.129Z,23.20
2018-12-23T04:36:10.077Z,24.80
2018-12-23T04:37:10.060Z,23.50
2018-12-23T04:38:10.054Z,22.00
2018-12-23T04:39:10.041Z,27.30
2018-12-23T04:40:10.063Z,26.80
2018-12-23T04:41:10.019Z,21.10
2018-12-23T04:42:10.007Z,21.40
2018-12-23T04:43:10.023Z,22.60
2018-12-23T04:44:09.984Z,22.50
2018-12-23T04:45:10.006Z,19.00
2018-12-23T04:46:09.973Z,22.20
2018-12-23T04:47:09.955Z,21.40
2018-12-23T04:48:09.946Z,21.00
2018-12-23T04:49:09.975Z,21.70
2018-12-23T04:50:09.923Z,20.60
2018-12-23T04:51:09.913Z,21.40
2018-12-23T04:52:09.928Z,19.10
2018-12-23T04:53:10.001Z,23.00
2018-12-23T04:54:09.881Z,18.50
2018-12-23T04:55:09.873Z,21.50
2018-12-23T04:56:09.880Z,22.20
2018-12-23T04:57:09.842Z,22.40
2018-12-23T04:58:09.840Z,21.30
2018-12-23T04:59:09.827Z,17.00
2018-12-23T05:00:09.854Z,20.60
2018-12-23T05:01:09.806Z,21.20
2018-12-23T05:02:09.791Z,23.00
2018-12-23T05:03:09.781Z,19.00
2018-12-23T05:04:09.781Z,18.90
2018-12-23T05:05:09.785Z,21.10
2018-12-23T05:06:09.747Z,19.10
2018-12-23T05:07:09.732Z,21.70
2018-12-23T05:08:09.725Z,17.70
2018-12-23T05:09:09.739Z,18.70
2018-12-23T05:10:09.707Z,17.60
2018-12-23T05:11:09.688Z,22.30
2018-12-23T05:12:09.679Z,20.90
2018-12-23T05:13:09.677Z,18.30
2018-12-23T05:14:09.680Z,18.00
2018-12-23T05:15:09.670Z,16.80
2018-12-23T05:16:09.643Z,19.10
2018-12-23T05:17:09.651Z,19.60
2018-12-23T05:18:09.650Z,17.90
2018-12-23T05:19:09.640Z,19.30
2018-12-23T05:20:09.592Z,18.60
2018-12-23T05:21:09.606Z,16.70
2018-12-23T05:22:09.570Z,18.00
2018-12-23T05:23:09.567Z,17.20
2018-12-23T05:24:09.578Z,17.80
2018-12-23T05:25:09.535Z,18.00
2018-12-23T05:26:09.541Z,18.90
2018-12-23T05:27:09.515Z,17.30
2018-12-23T05:28:09.502Z,16.50
2018-12-23T05:29:09.496Z,18.60
2018-12-23T05:30:09.507Z,16.40
2018-12-23T05:31:09.476Z,14.70
2018-12-23T05:32:09.459Z,15.60
2018-12-23T05:33:09.450Z,16.50
2018-12-23T05:34:09.435Z,20.30
2018-12-23T05:35:09.449Z,16.90
2018-12-23T05:36:09.435Z,15.20
2018-12-23T05:37:09.406Z,20.00
2018-12-23T05:38:09.390Z,17.70
2018-12-23T05:39:09.382Z,16.80
2018-12-23T05:40:09.401Z,18.80
2018-12-23T05:41:09.362Z,17.60
2018-12-23T05:42:09.351Z,16.20
2018-12-23T05:43:09.348Z,16.50
2018-12-23T05:44:09.357Z,12.60
2018-12-23T05:45:09.325Z,17.50
2018-12-23T05:46:09.339Z,17.10
2018-12-23T05:47:09.324Z,15.50
2018-12-23T05:48:09.292Z,17.90
2018-12-23T05:49:09.310Z,16.30
2018-12-23T05:50:09.307Z,14.50
2018-12-23T05:51:09.285Z,21.80
2018-12-23T05:52:09.250Z,17.00
2018-12-23T05:53:09.233Z,16.00
2018-12-23T05:54:09.226Z,21.60
2018-12-23T05:55:09.240Z,14.20
2018-12-23T05:56:09.203Z,19.70
2018-12-23T05:57:09.192Z,16.70
2018-12-23T05:58:09.179Z,15.30
2018-12-23T05:59:09.169Z,16.50
2018-12-23T06:00:09.186Z,19.10
2018-12-23T06:01:09.150Z,19.00
2018-12-23T06:02:09.140Z,17.20
2018-12-23T06:03:09.133Z,19.80
2018-12-23T06:04:09.126Z,13.70
2018-12-23T06:05:09.131Z,17.30
2018-12-23T06:06:09.096Z,18.50
2018-12-23T06:07:09.116Z,14.20
2018-12-23T06:08:09.088Z,15.20
2018-12-23T06:09:09.093Z,15.30
2018-12-23T06:10:09.058Z,16.90
2018-12-23T06:11:09.052Z,18.10
2018-12-23T06:12:09.033Z,12.40
2018-12-23T06:13:09.026Z,16.40
2018-12-23T06:14:09.039Z,14.60
2018-12-23T06:15:09.000Z,16.20
2018-12-23T06:16:09.031Z,14.30
2018-12-23T06:17:09.014Z,16.50
2018-12-23T06:18:08.974Z,15.40
2018-12-23T06:19:08.963Z,15.90
2018-12-23T06:20:08.948Z,12.80
2018-12-23T06:21:08.940Z,17.40
2018-12-23T06:22:08.957Z,15.00
2018-12-23T06:23:08.927Z,16.50
2018-12-23T06:24:08.939Z,14.10
2018-12-23T06:25:08.907Z,16.90
2018-12-23T06:26:08.881Z,14.40
2018-12-23T06:27:08.872Z,13.80
2018-12-23T06:28:08.862Z,15.70
2018-12-23T06:29:08.879Z,16.60
2018-12-23T06:30:08.845Z,14.90
2018-12-23T06:31:08.835Z,15.70
2018-12-23T06:32:08.819Z,18.50
2018-12-23T06:33:08.811Z,16.30
2018-12-23T06:34:08.818Z,17.40
2018-12-23T06:35:08.816Z,17.00
2018-12-23T06:36:08.777Z,14.80
2018-12-23T06:37:10.272Z,15.80
2018-12-23T06:38:08.752Z,15.20
2018-12-23T06:39:08.751Z,13.80
2018-12-23T06:40:08.760Z,13.40
2018-12-23T06:41:08.721Z,15.00
2018-12-23T06:42:08.711Z,16.00
2018-12-23T06:43:08.701Z,14.50
2018-12-23T06:44:08.692Z,16.60
2018-12-23T06:45:08.726Z,15.80
2018-12-23T06:46:08.672Z,13.30
2018-12-23T06:47:08.658Z,16.70
2018-12-23T06:48:08.643Z,15.60
2018-12-23T06:49:08.636Z,13.50
2018-12-23T06:50:08.647Z,15.80
2018-12-23T06:51:08.611Z,15.70
2018-12-23T06:52:08.627Z,16.00
2018-12-23T06:53:08.596Z,13.90
2018-12-23T06:54:08.581Z,14.90
2018-12-23T06:55:08.598Z,14.30
2018-12-23T06:56:08.558Z,14.50
2018-12-23T06:57:08.544Z,15.20
2018-12-23T06:58:08.534Z,15.30
2018-12-23T06:59:08.552Z,15.30
2018-12-23T07:00:08.538Z,14.80
2018-12-23T07:01:08.508Z,17.60
2018-12-23T07:02:08.508Z,12.60
2018-12-23T07:03:08.520Z,14.90
2018-12-23T07:04:08.467Z,15.20
2018-12-23T07:05:08.462Z,16.80
2018-12-23T07:06:08.450Z,13.70
2018-12-23T07:07:08.435Z,15.20
2018-12-23T07:08:08.451Z,16.60
2018-12-23T07:09:08.411Z,14.50
2018-12-23T07:10:08.401Z,14.70
2018-12-23T07:11:08.391Z,13.30
2018-12-23T07:12:08.413Z,13.50
2018-12-23T07:13:08.373Z,15.80
2018-12-23T07:14:08.361Z,15.30
2018-12-23T07:15:08.348Z,14.50
2018-12-23T07:16:08.353Z,15.40
2018-12-23T07:17:08.356Z,15.30
2018-12-23T07:18:08.313Z,14.60
2018-12-23T07:19:08.324Z,16.40
2018-12-23T07:20:08.324Z,15.60
2018-12-23T07:21:08.282Z,13.70
2018-12-23T07:22:08.270Z,13.60
2018-12-23T07:23:08.260Z,13.40
2018-12-23T07:24:08.249Z,14.90
2018-12-23T07:25:08.260Z,16.00
2018-12-23T07:26:08.230Z,15.90
2018-12-23T07:27:08.225Z,13.40
2018-12-23T07:28:08.206Z,14.90
2018-12-23T07:29:08.240Z,16.80
2018-12-23T07:30:08.183Z,12.80
2018-12-23T07:31:08.174Z,14.30
2018-12-23T07:32:08.179Z,14.20
2018-12-23T07:33:08.152Z,15.20
2018-12-23T07:34:08.165Z,13.70
2018-12-23T07:35:08.132Z,13.70
2018-12-23T07:36:08.125Z,15.00
2018-12-23T07:37:08.109Z,12.70
2018-12-23T07:38:08.103Z,11.80
2018-12-23T07:39:08.116Z,14.50
2018-12-23T07:40:08.124Z,14.20
2018-12-23T07:41:08.082Z,12.70
2018-12-23T07:42:08.057Z,13.70
2018-12-23T07:43:08.079Z,17.30
2018-12-23T07:44:08.032Z,12.60
2018-12-23T07:45:08.024Z,15.10
2018-12-23T07:46:08.015Z,12.90
2018-12-23T07:47:07.999Z,17.10
2018-12-23T07:48:08.145Z,15.80
2018-12-23T07:49:07.979Z,15.10
2018-12-23T07:50:07.969Z,13.20
2018-12-23T07:51:07.982Z,15.90
2018-12-23T07:52:07.952Z,15.80
2018-12-23T07:53:07.937Z,13.80
2018-12-23T07:54:08.000Z,13.80
2018-12-23T07:55:07.932Z,13.00
2018-12-23T07:56:07.903Z,12.50
2018-12-23T07:57:07.897Z,15.90
2018-12-23T07:58:07.916Z,14.40
2018-12-23T07:59:07.870Z,14.50
2018-12-23T08:00:07.859Z,13.40
2018-12-23T08:01:07.849Z,15.60
2018-12-23T08:02:07.842Z,12.10
2018-12-23T08:03:07.855Z,13.90
2018-12-23T08:04:07.817Z,13.60
2018-12-23T08:05:07.808Z,12.60
2018-12-23T08:06:07.795Z,15.60
2018-12-23T08:07:07.785Z,16.70
2018-12-23T08:08:07.809Z,12.70
2018-12-23T08:09:07.761Z,13.90
2018-12-23T08:10:07.750Z,12.40
2018-12-23T08:11:07.758Z,14.90
2018-12-23T08:12:07.737Z,13.50
2018-12-23T08:13:07.748Z,15.50
2018-12-23T08:14:07.734Z,14.70
2018-12-23T08:15:07.696Z,15.50
2018-12-23T08:16:07.684Z,13.20
2018-12-23T08:17:07.676Z,13.00
2018-12-23T08:18:07.675Z,11.30
2018-12-23T08:19:07.676Z,11.40
2018-12-23T08:20:07.666Z,10.50
2018-12-23T08:21:07.630Z,12.30
2018-12-23T08:22:07.618Z,12.00
2018-12-23T08:23:07.612Z,14.00
2018-12-23T08:24:07.600Z,12.20
2018-12-23T08:25:07.621Z,10.90
2018-12-23T08:26:07.601Z,13.30
2018-12-23T08:27:07.566Z,15.00
2018-12-23T08:28:07.555Z,12.80
2018-12-23T08:29:07.543Z,11.30
2018-12-23T08:30:07.536Z,14.20
2018-12-23T08:31:07.553Z,11.00
2018-12-23T08:32:07.509Z,9.80
2018-12-23T08:33:07.497Z,10.30
2018-12-23T08:34:07.484Z,13.90
2018-12-23T08:35:07.503Z,13.20
2018-12-23T08:36:07.467Z,13.50
2018-12-23T08:37:07.450Z,16.30
2018-12-23T08:38:07.445Z,9.90
2018-12-23T08:39:07.429Z,12.10
2018-12-23T08:40:07.442Z,15.00
2018-12-23T08:41:07.418Z,12.10
2018-12-23T08:42:07.392Z,11.10
2018-12-23T08:43:07.384Z,11.20
2018-12-23T08:44:07.401Z,12.80
2018-12-23T08:45:07.361Z,10.60
2018-12-23T08:46:07.347Z,15.50
2018-12-23T08:47:07.339Z,14.60
2018-12-23T08:48:07.325Z,13.80
2018-12-23T08:49:07.351Z,14.80
2018-12-23T08:50:07.327Z,11.90
2018-12-23T08:51:07.292Z,12.10
2018-12-23T08:52:07.285Z,12.60
2018-12-23T08:53:07.271Z,9.50
2018-12-23T08:54:07.256Z,13.10
2018-12-23T08:55:07.279Z,13.30
2018-12-23T08:56:07.240Z,12.20
2018-12-23T08:57:07.223Z,13.70
2018-12-23T08:58:07.240Z,11.50
2018-12-23T08:59:07.243Z,9.40
2018-12-23T09:00:07.318Z,10.90
2018-12-23T09:01:07.177Z,11.90
2018-12-23T09:02:07.166Z,12.70
2018-12-23T09:03:07.158Z,14.40
2018-12-23T09:04:07.172Z,13.20
2018-12-23T09:05:07.160Z,11.80
2018-12-23T09:06:07.124Z,11.40
2018-12-23T09:07:07.112Z,14.60
2018-12-23T09:08:07.116Z,14.20
2018-12-23T09:09:07.088Z,10.60
2018-12-23T09:10:07.085Z,14.20
2018-12-23T09:11:07.092Z,11.60
2018-12-23T09:12:07.056Z,12.20
2018-12-23T09:13:07.040Z,12.40
2018-12-23T09:14:07.037Z,11.90
2018-12-23T09:15:07.070Z,12.80
2018-12-23T09:16:07.049Z,12.00
2018-12-23T09:17:06.995Z,11.60
2018-12-23T09:18:06.984Z,10.30
2018-12-23T09:19:07.001Z,14.40
2018-12-23T09:20:06.966Z,10.60
2018-12-23T09:21:06.954Z,11.90
2018-12-23T09:22:06.963Z,11.50
2018-12-23T09:23:06.926Z,10.90
2018-12-23T09:24:06.946Z,10.40
2018-12-23T09:25:06.907Z,11.00
2018-12-23T09:26:06.902Z,13.00
2018-12-23T09:27:06.899Z,10.50
2018-12-23T09:28:08.881Z,9.70
2018-12-23T09:29:06.886Z,10.10
2018-12-23T09:30:06.847Z,10.60
2018-12-23T09:31:06.854Z,11.00
2018-12-23T09:32:06.826Z,10.10
2018-12-23T09:33:06.853Z,9.40
2018-12-23T09:34:06.805Z,10.80
2018-12-23T09:35:06.801Z,12.20
2018-12-23T09:36:06.782Z,14.60
2018-12-23T09:37:06.797Z,11.10
2018-12-23T09:38:06.763Z,11.40
2018-12-23T09:39:06.782Z,12.80
2018-12-23T09:40:06.737Z,11.30
2018-12-23T09:41:06.724Z,11.10
2018-12-23T09:42:06.715Z,10.90
2018-12-23T09:43:06.702Z,9.60
2018-12-23T09:44:06.711Z,10.40
2018-12-23T09:45:06.678Z,11.20
2018-12-23T09:46:06.696Z,11.70
2018-12-23T09:47:06.759Z,11.30
2018-12-23T09:48:06.645Z,9.60
2018-12-23T09:49:06.637Z,10.50
2018-12-23T09:50:06.685Z,11.80
2018-12-23T09:51:06.614Z,9.00
2018-12-23T09:52:06.602Z,10.80
2018-12-23T09:53:06.593Z,11.70
2018-12-23T09:54:06.583Z,11.30
2018-12-23T09:55:06.592Z,10.90
2018-12-23T09:56:06.560Z,9.90
2018-12-23T09:57:06.545Z,11.30
2018-12-23T09:58:06.536Z,8.00
2018-12-23T09:59:06.549Z,10.70
2018-12-23T10:00:06.512Z,9.80
2018-12-23T10:01:06.510Z,9.80
2018-12-23T10:02:06.488Z,11.40
2018-12-23T10:03:06.501Z,10.90
2018-12-23T10:04:06.464Z,9.70
2018-12-23T10:05:06.491Z,12.50
2018-12-23T10:06:06.450Z,11.10
2018-12-23T10:07:06.433Z,11.70
2018-12-23T10:08:10.220Z,11.20
2018-12-23T10:09:06.409Z,10.80
2018-12-23T10:10:06.431Z,12.10
2018-12-23T10:11:06.389Z,12.00
2018-12-23T10:12:06.383Z,10.60
2018-12-23T10:13:06.375Z,12.30
2018-12-23T10:14:06.353Z,14.10
2018-12-23T10:15:06.370Z,8.10
2018-12-23T10:16:06.328Z,11.90
2018-12-23T10:17:06.320Z,12.80
2018-12-23T10:18:06.311Z,11.50
2018-12-23T10:19:06.319Z,10.30
2018-12-23T10:20:06.285Z,15.10
2018-12-23T10:21:06.273Z,9.60
2018-12-23T10:22:06.260Z,12.30
2018-12-23T10:23:06.251Z,11.10
2018-12-23T10:24:06.265Z,13.70
2018-12-23T10:25:06.226Z,13.40
2018-12-23T10:26:06.217Z,12.30
2018-12-23T10:27:06.208Z,14.00
2018-12-23T10:28:06.194Z,11.80
2018-12-23T10:29:06.220Z,10.80
2018-12-23T10:30:06.175Z,14.60
2018-12-23T10:31:06.157Z,9.30
2018-12-23T10:32:06.153Z,13.60
2018-12-23T10:33:06.135Z,12.20
2018-12-23T10:34:06.154Z,14.20
2018-12-23T10:35:06.116Z,14.00
2018-12-23T10:36:06.129Z,15.80
2018-12-23T10:37:06.093Z,12.70
2018-12-23T10:38:06.078Z,11.70
2018-12-23T10:39:06.067Z,11.20
2018-12-23T10:40:06.056Z,12.40
2018-12-23T10:41:06.079Z,11.40
2018-12-23T10:42:06.034Z,16.80
2018-12-23T10:43:06.025Z,13.00
2018-12-23T10:44:06.010Z,11.60
2018-12-23T10:45:06.026Z,13.50
2018-12-23T10:46:05.991Z,12.20
2018-12-23T10:47:06.014Z,9.50
2018-12-23T10:48:05.971Z,10.70
2018-12-23T10:49:05.959Z,12.70
2018-12-23T10:50:05.954Z,10.60
2018-12-23T10:51:05.931Z,10.60
2018-12-23T10:52:05.952Z,11.50
2018-12-23T10:53:05.977Z,11.30
2018-12-23T10:54:05.897Z,10.20
2018-12-23T10:55:05.889Z,9.50
2018-12-23T10:56:05.879Z,11.70
2018-12-23T10:57:05.892Z,11.70
2018-12-23T10:58:05.855Z,13.70
2018-12-23T10:59:05.838Z,12.40
2018-12-23T11:00:05.832Z,9.80
2018-12-23T11:01:05.818Z,12.40
2018-12-23T11:02:13.481Z,13.10
2018-12-23T11:03:06.793Z,13.40
2018-12-23T11:04:05.782Z,9.40
2018-12-23T11:05:05.770Z,9.70
2018-12-23T11:06:05.759Z,12.50
2018-12-23T11:07:05.773Z,11.50
2018-12-23T11:08:05.747Z,14.20
2018-12-23T11:09:05.749Z,11.80
2018-12-23T11:10:05.715Z,12.40
2018-12-23T11:11:05.756Z,12.50
2018-12-23T11:12:05.695Z,12.80
2018-12-23T11:13:05.688Z,13.80
2018-12-23T11:14:05.675Z,14.30
2018-12-23T11:15:05.681Z,12.60
2018-12-23T11:16:05.645Z,15.00
2018-12-23T11:17:05.637Z,13.60
2018-12-23T11:18:05.662Z,10.90
2018-12-23T11:19:05.621Z,10.10
2018-12-23T11:20:05.604Z,10.70
2018-12-23T11:21:05.612Z,14.30
2018-12-23T11:22:05.577Z,13.70
2018-12-23T11:23:05.565Z,12.60
2018-12-23T11:24:05.563Z,12.30
2018-12-23T11:25:05.542Z,12.80
2018-12-23T11:26:05.555Z,14.60
2018-12-23T11:27:05.517Z,13.00
2018-12-23T11:28:05.513Z,13.80
2018-12-23T11:29:05.501Z,13.00
2018-12-23T11:30:05.510Z,15.80
2018-12-23T11:31:05.482Z,13.70
2018-12-23T11:32:05.547Z,13.90
2018-12-23T11:33:05.451Z,15.80
2018-12-23T11:34:05.440Z,14.70
2018-12-23T11:35:05.501Z,18.60
2018-12-23T11:36:05.423Z,14.00
2018-12-23T11:37:05.442Z,14.80
2018-12-23T11:38:05.397Z,16.10
2018-12-23T11:39:05.415Z,12.90
2018-12-23T11:40:05.418Z,12.80
2018-12-23T11:41:05.368Z,18.20
2018-12-23T11:42:05.348Z,16.50
2018-12-23T11:43:05.361Z,16.70
2018-12-23T11:44:05.340Z,18.50
2018-12-23T11:45:05.318Z,15.10
2018-12-23T11:46:05.326Z,14.90
2018-12-23T11:47:05.295Z,14.30
2018-12-23T11:48:05.320Z,16.50
2018-12-23T11:49:05.277Z,14.30
2018-12-23T11:50:05.256Z,15.90
2018-12-23T11:51:06.777Z,13.50
2018-12-23T11:52:05.245Z,18.40
2018-12-23T11:53:05.268Z,16.90
2018-12-23T11:54:05.218Z,16.80
2018-12-23T11:55:05.198Z,13.70
2018-12-23T11:56:05.194Z,16.90
2018-12-23T11:57:05.180Z,14.90
2018-12-23T11:58:05.188Z,15.30
2018-12-23T11:59:05.155Z,16.80
2018-12-23T12:00:05.142Z,19.00
2018-12-23T12:01:05.133Z,18.60
2018-12-23T12:02:05.120Z,19.70
2018-12-23T12:03:05.143Z,17.30
2018-12-23T12:04:05.105Z,15.60
2018-12-23T12:05:05.118Z,16.20
2018-12-23T12:06:05.072Z,16.00
2018-12-23T12:07:05.062Z,19.40
2018-12-23T12:08:05.052Z,16.20
2018-12-23T12:09:07.024Z,17.70
2018-12-23T12:10:05.042Z,15.10
2018-12-23T12:11:05.015Z,14.00
2018-12-23T12:12:05.009Z,17.80
2018-12-23T12:13:04.996Z,15.50
2018-12-23T12:14:05.019Z,16.70
2018-12-23T12:15:04.986Z,17.30
2018-12-23T12:16:04.972Z,14.30
2018-12-23T12:17:04.950Z,17.90
2018-12-23T12:18:04.942Z,18.40
2018-12-23T12:19:04.954Z,16.00
2018-12-23T12:20:04.927Z,14.80
2018-12-23T12:21:04.907Z,18.00
2018-12-23T12:22:04.890Z,17.90
2018-12-23T12:23:04.916Z,18.50
2018-12-23T12:24:04.870Z,14.30
2018-12-23T12:25:04.864Z,12.30
2018-12-23T12:26:04.853Z,15.90
2018-12-23T12:27:04.841Z,15.20
2018-12-23T12:28:04.848Z,13.60
2018-12-23T12:29:04.811Z,15.30
2018-12-23T12:30:04.803Z,17.60
2018-12-23T12:31:04.819Z,13.40
2018-12-23T12:32:04.784Z,15.90
2018-12-23T12:33:04.782Z,13.60
2018-12-23T12:34:04.782Z,12.80
2018-12-23T12:35:04.749Z,12.70
2018-12-23T12:36:04.733Z,14.00
2018-12-23T12:37:04.725Z,11.80
2018-12-23T12:38:04.724Z,11.40
2018-12-23T12:39:04.732Z,10.30
2018-12-23T12:40:04.693Z,13.90
2018-12-23T12:41:04.688Z,10.90
2018-12-23T12:42:04.673Z,12.90
2018-12-23T12:43:04.656Z,12.30
2018-12-23T12:44:04.674Z,12.30
2018-12-23T12:45:04.639Z,11.90
2018-12-23T12:46:04.634Z,9.80
2018-12-23T12:47:04.613Z,13.30
2018-12-23T12:48:04.600Z,12.50
2018-12-23T12:49:04.614Z,13.90
2018-12-23T12:50:04.607Z,14.50
2018-12-23T12:51:04.566Z,14.00
2018-12-23T12:52:04.561Z,13.30
2018-12-23T12:53:04.544Z,11.80